»·PEaware :: UAL428 KSLC-KRNO

UAL428 :: KSLC-KRNO

FLIGHT INFORMATION

Flight Status: Arrived
Operator:
United Airlines
More flights by this operator :: More flights under this callsign
Pilot: Pratham R. (19019)
Aircraft: AIRBUS A320
(A320)
More flights by this aircraft type
Origin: KSLC Salt Lake City Intl
United States
Destination: KRNO Reno/Tahoe Intl
United States
More flights between these airports :: More routes between these airports
Route: DEZRT1 BAM MYBAD MYBAD2
File this flight plan on PilotEdge
Remarks: PBN / A1B1C1D1O1S1 DOF / 190104 REG / N428UA EET / KZOA0040 OPR / UAL PER / C RMK / TCAS SIMBRIEF
Altitude:
(Current/Filed)
34,000ft
Speed:
(Current/Filed)
443kts
Departed: 12-Jan-19 05:39 PM
Arrived: 12-Jan-19 06:37 PM
Distance/Time
Traveled:
366nm/0:58
Distance/Time
To Go:
Arrived

Flight Plot

Page will automatically refresh every two minutes.

Flight plan parsing failed; only flown route is shown


Map Options




Map Legend


Flown Route
Filed Route
Departure Airport
Arrival Airport
Navaid (VOR, NDB)
Fix

Horizontal Profiles

Position Reports

Time Latitude Longitude Heading Altitude Ground
Speed
12-Jan-19 16:21 40.788195 -111.977960 267 4236ft 0kts
12-Jan-19 16:22 40.788195 -111.977960 267 4236ft 0kts
12-Jan-19 16:23 40.788195 -111.977960 267 4236ft 0kts
12-Jan-19 16:24 40.788195 -111.977960 267 4236ft 0kts
12-Jan-19 16:25 40.788195 -111.977960 267 4236ft 0kts
12-Jan-19 16:26 40.788195 -111.977960 267 4236ft 0kts
12-Jan-19 16:27 40.788195 -111.977960 267 4236ft 0kts
12-Jan-19 16:28 40.788195 -111.977960 267 4236ft 0kts
12-Jan-19 16:29 40.788195 -111.977960 267 4236ft 0kts
12-Jan-19 16:30 40.788195 -111.977960 267 4236ft 0kts
12-Jan-19 16:31 40.788195 -111.977960 267 4236ft 0kts
12-Jan-19 16:32 40.788195 -111.977960 267 4236ft 0kts
12-Jan-19 16:33 40.788195 -111.977960 267 4236ft 0kts
12-Jan-19 16:34 40.788195 -111.977960 267 4236ft 0kts
12-Jan-19 16:35 40.788195 -111.977960 267 4236ft 0kts
12-Jan-19 16:36 40.788195 -111.977960 267 4236ft 0kts
12-Jan-19 16:37 40.788195 -111.977960 267 4236ft 0kts
12-Jan-19 16:38 40.788195 -111.977960 267 4236ft 0kts
12-Jan-19 16:39 40.788195 -111.977960 267 4236ft 0kts
12-Jan-19 16:40 40.788195 -111.977960 267 4236ft 0kts
12-Jan-19 16:41 40.788195 -111.977960 267 4236ft 0kts
12-Jan-19 16:42 40.788195 -111.977960 267 4236ft 0kts
12-Jan-19 16:43 40.788195 -111.977960 267 4236ft 0kts
12-Jan-19 16:44 40.788195 -111.977960 267 4236ft 0kts
12-Jan-19 16:45 40.788195 -111.977960 267 4236ft 0kts
12-Jan-19 16:46 40.788195 -111.977960 267 4236ft 0kts
12-Jan-19 16:47 40.788195 -111.977960 267 4236ft 0kts
12-Jan-19 16:48 40.788195 -111.977960 267 4236ft 0kts
12-Jan-19 16:49 40.788195 -111.977960 267 4236ft 0kts
12-Jan-19 16:50 40.788195 -111.977960 267 4236ft 0kts
12-Jan-19 16:51 40.788195 -111.977960 267 4236ft 0kts
12-Jan-19 16:52 40.788195 -111.977960 267 4236ft 0kts
12-Jan-19 16:53 40.788195 -111.977960 267 4236ft 0kts
12-Jan-19 16:54 40.788195 -111.977960 267 4236ft 0kts
12-Jan-19 16:55 40.788195 -111.977960 267 4236ft 0kts
12-Jan-19 16:56 40.788195 -111.977960 267 4236ft 0kts
12-Jan-19 16:57 40.788195 -111.977960 267 4236ft 0kts
12-Jan-19 16:58 40.788195 -111.977960 267 4236ft 0kts
12-Jan-19 16:59 40.788195 -111.977960 267 4236ft 0kts
12-Jan-19 17:00 40.788195 -111.977960 267 4236ft 0kts
12-Jan-19 17:01 40.788195 -111.977960 267 4236ft 0kts
12-Jan-19 17:02 40.788195 -111.977960 267 4236ft 0kts
12-Jan-19 17:03 40.788195 -111.977960 267 4236ft 0kts
12-Jan-19 17:04 40.788195 -111.977960 267 4236ft 0kts
12-Jan-19 17:05 40.788195 -111.977960 267 4236ft 0kts
12-Jan-19 17:06 40.788195 -111.977960 267 4236ft 0kts
12-Jan-19 17:07 40.788195 -111.977960 267 4236ft 0kts
12-Jan-19 17:08 40.788195 -111.977960 267 4236ft 0kts
12-Jan-19 17:09 40.788195 -111.977960 267 4236ft 0kts
12-Jan-19 17:10 40.788195 -111.977960 267 4236ft 0kts
12-Jan-19 17:11 40.788195 -111.977960 267 4236ft 0kts
12-Jan-19 17:12 40.788195 -111.977960 267 4236ft 0kts
12-Jan-19 17:13 40.788195 -111.977960 267 4236ft 0kts
12-Jan-19 17:14 40.788195 -111.977960 267 4236ft 0kts
12-Jan-19 17:15 40.788195 -111.977960 267 4236ft 0kts
12-Jan-19 17:16 40.788195 -111.977960 267 4236ft 0kts
12-Jan-19 17:17 40.788195 -111.977960 267 4236ft 0kts
12-Jan-19 17:18 40.788195 -111.977960 267 4236ft 0kts
12-Jan-19 17:19 40.788195 -111.977960 267 4236ft 0kts
12-Jan-19 17:20 40.788195 -111.977960 267 4236ft 0kts
12-Jan-19 17:21 40.788195 -111.977960 267 4236ft 0kts
12-Jan-19 17:22 40.788195 -111.977960 267 4236ft 0kts
12-Jan-19 17:23 40.788195 -111.977960 267 4236ft 0kts
12-Jan-19 17:24 40.788195 -111.977960 267 4236ft 0kts
12-Jan-19 17:25 40.788195 -111.977960 267 4236ft 0kts
12-Jan-19 17:26 40.788195 -111.977959 267 4236ft 0kts
12-Jan-19 17:27 40.788212 -111.977457 267 4236ft 2kts
12-Jan-19 17:28 40.788466 -111.976914 184 4236ft 2kts
12-Jan-19 17:29 40.788571 -111.976922 173 4236ft 0kts
12-Jan-19 17:30 40.788571 -111.976921 173 4236ft 0kts
12-Jan-19 17:31 40.788571 -111.976921 173 4236ft 0kts
12-Jan-19 17:32 40.788571 -111.976921 173 4236ft 0kts
12-Jan-19 17:33 40.788570 -111.976921 174 4236ft 0kts
12-Jan-19 17:34 40.786586 -111.976703 175 4236ft 11kts
12-Jan-19 17:35 40.782568 -111.976225 174 4236ft 17kts
12-Jan-19 17:36 40.777191 -111.975621 176 4236ft 18kts
12-Jan-19 17:37 40.775659 -111.973479 66 4236ft 6kts
12-Jan-19 17:38 40.793333 -111.975256 354 4391ft 174kts
12-Jan-19 17:39 40.843930 -111.980673 355 7375ft 214kts
12-Jan-19 17:40 40.910559 -111.989272 344 9928ft 281kts
12-Jan-19 17:41 40.942152 -112.082043 257 12311ft 345kts
12-Jan-19 17:42 40.917040 -112.207714 256 15061ft 359kts
12-Jan-19 17:43 40.890822 -112.340340 257 17585ft 379kts
12-Jan-19 17:44 40.868929 -112.480276 267 19985ft 394kts
12-Jan-19 17:45 40.858629 -112.628410 266 22147ft 410kts
12-Jan-19 17:46 40.845939 -112.782227 266 24080ft 425kts
12-Jan-19 17:47 40.842149 -112.942035 272 25795ft 437kts
12-Jan-19 17:48 40.842577 -113.108840 272 27355ft 451kts
12-Jan-19 17:49 40.842775 -113.278468 272 28797ft 464kts
12-Jan-19 17:50 40.842745 -113.433948 272 29959ft 474kts
12-Jan-19 17:51 40.842519 -113.580659 272 30961ft 483kts
12-Jan-19 17:53 40.841934 -113.773096 272 32370ft 487kts
12-Jan-19 17:54 40.840923 -113.966907 272 33789ft 488kts
12-Jan-19 17:55 40.839621 -114.149596 272 34320ft 485kts
12-Jan-19 17:56 40.838063 -114.330430 272 34323ft 487kts
12-Jan-19 17:57 40.836276 -114.505922 272 34322ft 487kts
12-Jan-19 17:58 40.834122 -114.689038 271 34319ft 487kts
12-Jan-19 17:59 40.820018 -114.868614 263 34274ft 489kts
12-Jan-19 18:00 40.802457 -115.023123 262 34239ft 489kts
12-Jan-19 18:01 40.784308 -115.181012 262 34239ft 491kts
12-Jan-19 18:02 40.766396 -115.334941 261 34251ft 492kts
12-Jan-19 18:03 40.741057 -115.549565 261 34263ft 493kts
12-Jan-19 18:04 40.719460 -115.729739 261 34259ft 492kts
12-Jan-19 18:05 40.698096 -115.905604 261 34245ft 492kts
12-Jan-19 18:06 40.676505 -116.081031 261 34252ft 492kts
12-Jan-19 18:07 40.655107 -116.252697 261 34229ft 492kts
12-Jan-19 18:08 40.632779 -116.429575 261 34196ft 493kts
12-Jan-19 18:09 40.610043 -116.607410 261 34205ft 493kts
12-Jan-19 18:10 40.587205 -116.783794 260 34204ft 493kts
12-Jan-19 18:11 40.563884 -116.964121 260 34210ft 492kts
12-Jan-19 18:12 40.542630 -117.143703 259 34244ft 487kts
12-Jan-19 18:13 40.521207 -117.320632 259 34205ft 483kts
12-Jan-19 18:13 40.503316 -117.466588 259 34160ft 482kts
12-Jan-19 18:14 40.481488 -117.642515 259 34142ft 482kts
12-Jan-19 18:15 40.459272 -117.819321 259 34159ft 482kts
12-Jan-19 18:17 40.433140 -118.024431 259 34170ft 482kts
12-Jan-19 18:18 40.410463 -118.200029 259 33689ft 482kts
12-Jan-19 18:18 40.390697 -118.345945 253 31190ft 484kts
12-Jan-19 18:20 40.317931 -118.524578 236 28535ft 460kts
12-Jan-19 18:21 40.254587 -118.665854 242 26326ft 445kts
12-Jan-19 18:21 40.207572 -118.785933 241 24457ft 431kts
12-Jan-19 18:22 40.153260 -118.923936 240 22239ft 416kts
12-Jan-19 18:23 40.100209 -119.058160 239 20006ft 400kts
12-Jan-19 18:24 40.049271 -119.186499 239 17793ft 384kts
12-Jan-19 18:25 40.000732 -119.308281 239 15624ft 371kts
12-Jan-19 18:26 39.953398 -119.426553 239 13496ft 357kts
12-Jan-19 18:27 39.903371 -119.535981 234 11651ft 335kts
12-Jan-19 18:28 39.853316 -119.628817 216 10896ft 277kts
12-Jan-19 18:29 39.795668 -119.688998 214 9259ft 247kts
12-Jan-19 18:30 39.743021 -119.732012 203 8426ft 205kts
12-Jan-19 18:31 39.691953 -119.765003 188 7949ft 202kts
12-Jan-19 18:32 39.639309 -119.768789 176 7019ft 180kts
12-Jan-19 18:33 39.594230 -119.769067 175 6139ft 143kts
12-Jan-19 18:34 39.559164 -119.769142 176 5412ft 130kts
12-Jan-19 18:35 39.525811 -119.769240 177 4770ft 131kts
12-Jan-19 18:36 39.496762 -119.769233 179 4424ft 24kts
12-Jan-19 18:37 39.492571 -119.770697 253 4424ft 6kts
12-Jan-19 18:38 39.494659 -119.771522 0 4424ft 10kts
12-Jan-19 18:39 39.498341 -119.771511 359 4424ft 17kts
12-Jan-19 18:40 39.502411 -119.771503 359 4424ft 11kts
12-Jan-19 18:41 39.503902 -119.772677 344 4424ft 4kts
12-Jan-19 18:42 39.504450 -119.772777 354 4424ft 0kts
12-Jan-19 18:43 39.504450 -119.772777 354 4424ft 0kts
12-Jan-19 18:44 39.504450 -119.772777 354 4424ft 0kts
12-Jan-19 18:45 39.504450 -119.772777 354 4424ft 0kts
12-Jan-19 18:46 39.504450 -119.772777 354 4424ft 0kts
12-Jan-19 18:47 39.504450 -119.772777 354 4424ft 0kts
12-Jan-19 18:48 39.504450 -119.772777 354 4424ft 0kts
12-Jan-19 18:49 39.504450 -119.772777 354 4424ft 0kts
12-Jan-19 18:50 39.504450 -119.772777 354 4424ft 0kts
12-Jan-19 18:51 39.504450 -119.772777 354 4424ft 0kts

Navigation Log

Ident Type
Flight plan parsing failed, navigation log unavailable